createdAt,value
2023-03-02T00:00:47.136Z,2.91
2023-03-02T00:03:50.559Z,2.92
2023-03-02T00:06:58.379Z,2.96
2023-03-02T00:10:01.916Z,2.94
2023-03-02T00:13:08.054Z,2.96
2023-03-02T00:16:11.708Z,3.01
2023-03-02T00:19:15.128Z,3.02
2023-03-02T00:22:19.304Z,2.93
2023-03-02T00:25:22.243Z,3.06
2023-03-02T00:28:25.263Z,2.99
2023-03-02T00:31:28.541Z,2.95
2023-03-02T00:34:34.579Z,2.98
2023-03-02T00:37:38.456Z,2.96
2023-03-02T00:40:49.235Z,3.00
2023-03-02T00:43:52.537Z,3.04
2023-03-02T00:46:55.701Z,3.10
2023-03-02T00:49:59.270Z,3.07
2023-03-02T00:53:02.129Z,3.10
2023-03-02T00:56:06.164Z,3.12
2023-03-02T00:59:34.098Z,3.12
2023-03-02T01:02:52.277Z,3.17
2023-03-02T01:05:56.539Z,3.06
2023-03-02T01:08:59.759Z,3.00
2023-03-02T01:12:03.741Z,2.95
2023-03-02T01:15:08.349Z,2.87
2023-03-02T01:18:12.259Z,2.78
2023-03-02T01:21:16.617Z,2.65
2023-03-02T01:24:19.599Z,2.74
2023-03-02T01:27:22.556Z,2.70
2023-03-02T01:30:25.664Z,2.60
2023-03-02T01:33:29.274Z,2.57
2023-03-02T01:36:32.711Z,2.57
2023-03-02T01:39:36.340Z,2.57
2023-03-02T01:42:47.119Z,2.56
2023-03-02T01:45:59.931Z,2.40
2023-03-02T01:49:23.505Z,2.40
2023-03-02T01:52:35.331Z,2.20
2023-03-02T01:55:39.841Z,2.33
2023-03-02T01:58:46.250Z,2.46
2023-03-02T02:01:55.669Z,2.47
2023-03-02T02:04:58.871Z,2.59
2023-03-02T02:08:02.517Z,2.70
2023-03-02T02:11:06.762Z,2.73
2023-03-02T02:14:10.580Z,2.82
2023-03-02T02:17:17.055Z,2.90
2023-03-02T02:20:20.748Z,2.95
2023-03-02T02:23:27.667Z,2.99
2023-03-02T02:26:45.466Z,2.98
2023-03-02T02:29:51.760Z,2.96
2023-03-02T02:32:56.262Z,2.87
2023-03-02T02:36:06.490Z,2.88
2023-03-02T02:39:20.924Z,2.95
2023-03-02T02:42:29.602Z,3.05
2023-03-02T02:45:32.738Z,3.08
2023-03-02T02:48:35.815Z,3.05
2023-03-02T02:51:39.065Z,3.06
2023-03-02T02:54:44.721Z,3.05
2023-03-02T02:57:49.230Z,3.14
2023-03-02T03:00:54.939Z,3.20
2023-03-02T03:04:02.706Z,3.08
2023-03-02T03:07:06.799Z,2.99
2023-03-02T03:10:28.038Z,3.03
2023-03-02T03:13:31.317Z,3.07
2023-03-02T03:16:36.116Z,3.08
2023-03-02T03:19:45.601Z,2.99
2023-03-02T03:22:49.169Z,3.16
2023-03-02T03:25:52.763Z,3.31
2023-03-02T03:28:57.381Z,3.31
2023-03-02T03:32:02.299Z,3.24
2023-03-02T03:35:08.905Z,3.50
2023-03-02T03:38:12.620Z,3.16
2023-03-02T03:41:16.717Z,3.38
2023-03-02T03:44:20.142Z,3.23
2023-03-02T03:47:24.138Z,3.25
2023-03-02T03:50:28.563Z,3.14
2023-03-02T03:53:32.256Z,3.14
2023-03-02T03:56:39.870Z,3.01
2023-03-02T03:59:42.950Z,3.10
2023-03-02T04:02:46.007Z,3.20
2023-03-02T04:05:50.253Z,3.20
2023-03-02T04:08:54.125Z,3.19
2023-03-02T04:11:57.797Z,3.12
2023-03-02T04:15:02.614Z,3.19
2023-03-02T04:18:05.980Z,3.14
2023-03-02T04:21:10.933Z,3.17
2023-03-02T04:24:15.854Z,3.13
2023-03-02T04:27:20.024Z,3.04
2023-03-02T04:30:25.484Z,3.06
2023-03-02T04:33:29.221Z,3.02
2023-03-02T04:36:35.424Z,2.87
2023-03-02T04:39:40.823Z,2.81
2023-03-02T04:42:44.829Z,2.83
2023-03-02T04:45:48.352Z,2.87
2023-03-02T04:48:52.945Z,2.75
2023-03-02T04:52:01.742Z,2.81
2023-03-02T04:55:05.155Z,2.82
2023-03-02T04:58:08.860Z,2.76
2023-03-02T05:01:12.333Z,2.53
2023-03-02T05:04:16.450Z,2.45
2023-03-02T05:07:19.865Z,2.50
2023-03-02T05:10:23.764Z,2.50
2023-03-02T05:13:27.938Z,2.22
2023-03-02T05:16:34.160Z,2.20
2023-03-02T05:19:37.619Z,2.22
2023-03-02T05:22:40.693Z,2.06
2023-03-02T05:25:43.709Z,2.04
2023-03-02T05:28:47.329Z,2.00
2023-03-02T05:31:51.352Z,1.78
2023-03-02T05:34:54.516Z,1.93
2023-03-02T05:37:57.938Z,1.96
2023-03-02T05:41:01.271Z,2.09
2023-03-02T05:44:06.047Z,2.07
2023-03-02T05:47:09.237Z,2.35
2023-03-02T05:50:12.310Z,2.76
2023-03-02T05:53:16.783Z,2.83
2023-03-02T05:56:21.409Z,3.28
2023-03-02T05:59:24.720Z,3.58
2023-03-02T06:02:27.672Z,3.75
2023-03-02T06:05:30.573Z,3.71
2023-03-02T06:08:33.934Z,3.84
2023-03-02T06:11:36.827Z,4.03
2023-03-02T06:14:40.266Z,4.10
2023-03-02T06:17:43.303Z,4.62
2023-03-02T06:20:46.623Z,4.58
2023-03-02T06:23:49.561Z,4.64
2023-03-02T06:26:55.883Z,4.59
2023-03-02T06:29:58.789Z,4.71
2023-03-02T06:33:02.071Z,5.15
2023-03-02T06:36:05.624Z,5.60
2023-03-02T06:39:15.820Z,6.02
2023-03-02T06:42:26.300Z,6.19
2023-03-02T06:45:30.352Z,6.52
2023-03-02T06:48:34.306Z,6.51
2023-03-02T06:51:38.109Z,7.15
2023-03-02T06:54:41.764Z,7.33
2023-03-02T06:57:45.111Z,7.82
2023-03-02T07:00:51.052Z,8.04
2023-03-02T07:03:54.714Z,7.84
2023-03-02T07:07:01.241Z,8.37
2023-03-02T07:10:07.106Z,8.34
2023-03-02T07:13:14.146Z,8.25
2023-03-02T07:16:17.836Z,8.21
2023-03-02T07:19:21.515Z,8.11
2023-03-02T07:22:25.036Z,7.99
2023-03-02T07:25:32.902Z,8.40
2023-03-02T07:28:42.453Z,8.48
2023-03-02T07:31:45.568Z,8.01
2023-03-02T07:34:49.277Z,8.01
2023-03-02T07:38:08.678Z,7.80
2023-03-02T07:41:12.950Z,7.57
2023-03-02T07:44:17.019Z,7.65
2023-03-02T07:47:20.662Z,7.73
2023-03-02T07:50:25.210Z,7.73
2023-03-02T07:53:31.048Z,7.49
2023-03-02T07:56:37.473Z,7.64
2023-03-02T07:59:41.003Z,7.74
2023-03-02T08:02:44.624Z,7.91
2023-03-02T08:05:48.085Z,7.86
2023-03-02T08:08:55.322Z,7.99
2023-03-02T08:11:58.836Z,8.12
2023-03-02T08:15:05.273Z,8.36
2023-03-02T08:18:09.646Z,8.54
2023-03-02T08:21:34.200Z,8.20
2023-03-02T08:24:43.148Z,8.22
2023-03-02T08:27:49.000Z,8.63
2023-03-02T08:31:01.621Z,8.95
2023-03-02T08:34:04.832Z,9.24
2023-03-02T08:37:14.104Z,9.10
2023-03-02T08:40:17.712Z,9.15
2023-03-02T08:43:26.111Z,8.99
2023-03-02T08:46:31.002Z,8.58
2023-03-02T08:49:34.391Z,8.58
2023-03-02T08:52:37.762Z,9.04
2023-03-02T08:55:40.894Z,8.71
2023-03-02T08:58:44.644Z,8.86
2023-03-02T09:01:48.436Z,8.71
2023-03-02T09:04:51.982Z,8.65
2023-03-02T09:07:55.591Z,8.86
2023-03-02T09:11:00.866Z,9.11
2023-03-02T09:14:04.712Z,9.29
2023-03-02T09:17:08.282Z,9.32
2023-03-02T09:20:12.222Z,9.53
2023-03-02T09:23:16.031Z,10.04
2023-03-02T09:26:19.563Z,10.31
2023-03-02T09:29:26.394Z,10.68
2023-03-02T09:32:29.805Z,10.12
2023-03-02T09:35:40.210Z,10.57
2023-03-02T09:38:43.515Z,10.35
2023-03-02T09:42:07.654Z,10.58
2023-03-02T09:45:34.865Z,10.99
2023-03-02T09:49:28.673Z,11.07
2023-03-02T09:52:52.745Z,10.95
2023-03-02T09:56:02.712Z,11.03
2023-03-02T09:59:18.148Z,11.58
2023-03-02T10:02:48.060Z,11.36
2023-03-02T10:05:54.292Z,11.95
2023-03-02T10:08:57.779Z,12.26
2023-03-02T10:12:13.394Z,12.33
2023-03-02T10:15:30.034Z,12.14
2023-03-02T10:18:33.330Z,11.74
2023-03-02T10:22:13.576Z,11.43
2023-03-02T10:25:22.888Z,11.50
2023-03-02T10:28:33.063Z,11.45
2023-03-02T10:31:43.781Z,11.18
2023-03-02T10:34:50.239Z,11.01
2023-03-02T10:38:12.608Z,10.87
2023-03-02T10:41:23.511Z,10.75
2023-03-02T10:44:52.576Z,10.85
2023-03-02T10:48:11.437Z,11.13
2023-03-02T10:51:29.912Z,11.15
2023-03-02T10:54:34.917Z,11.18
2023-03-02T10:57:43.613Z,11.05
2023-03-02T11:00:58.514Z,11.03
2023-03-02T11:04:02.683Z,11.03
2023-03-02T11:07:32.257Z,11.19
2023-03-02T11:10:51.853Z,10.92
2023-03-02T11:13:57.067Z,11.12
2023-03-02T11:17:02.421Z,11.30
2023-03-02T11:20:16.351Z,11.45
2023-03-02T11:23:42.386Z,11.60
2023-03-02T11:26:51.229Z,11.57
2023-03-02T11:30:16.230Z,11.60
2023-03-02T11:33:30.187Z,11.48
2023-03-02T11:36:55.212Z,11.45
2023-03-02T11:40:05.729Z,11.51
2023-03-02T11:43:12.928Z,11.33
2023-03-02T11:46:27.289Z,10.76
2023-03-02T11:49:54.941Z,10.68
2023-03-02T11:53:18.306Z,10.59
2023-03-02T11:56:22.935Z,10.61
2023-03-02T11:59:28.930Z,10.61
2023-03-02T12:02:32.101Z,10.65
2023-03-02T12:05:38.091Z,10.54
2023-03-02T12:08:45.135Z,10.72
2023-03-02T12:11:56.073Z,10.68
2023-03-02T12:15:01.330Z,10.79
2023-03-02T12:18:23.816Z,10.69
2023-03-02T12:21:27.568Z,10.73
2023-03-02T12:24:33.514Z,10.46
2023-03-02T12:27:41.921Z,10.50
2023-03-02T12:30:56.896Z,10.41
2023-03-02T12:34:00.810Z,10.16
2023-03-02T12:37:38.224Z,10.27
2023-03-02T12:41:00.450Z,10.42
2023-03-02T12:44:12.636Z,10.64
2023-03-02T12:47:27.992Z,10.68
2023-03-02T12:50:37.934Z,10.70
2023-03-02T12:53:41.764Z,10.69
2023-03-02T12:56:45.967Z,10.78
2023-03-02T13:00:01.446Z,10.69
2023-03-02T13:03:10.083Z,10.74
2023-03-02T13:06:18.354Z,10.87
2023-03-02T13:09:23.978Z,10.74
2023-03-02T13:12:29.402Z,10.69
2023-03-02T13:15:54.640Z,10.79
2023-03-02T13:19:00.482Z,10.82
2023-03-02T13:25:28.301Z,10.92
2023-03-02T13:28:36.978Z,10.91
2023-03-02T13:31:40.958Z,10.89
2023-03-02T13:34:50.278Z,10.62
2023-03-02T13:38:14.154Z,10.35
2023-03-02T13:41:59.787Z,10.38
2023-03-02T13:45:33.046Z,10.57
2023-03-02T13:48:36.447Z,10.68
2023-03-02T13:51:46.288Z,10.68
2023-03-02T13:54:51.724Z,10.90
2023-03-02T13:57:56.414Z,10.85
2023-03-02T14:01:07.926Z,10.77
2023-03-02T14:04:18.238Z,10.73
2023-03-02T14:07:21.726Z,10.79
2023-03-02T14:10:26.843Z,10.73
2023-03-02T14:13:45.595Z,10.74
2023-03-02T14:16:48.789Z,10.71
2023-03-02T14:19:53.062Z,10.63
2023-03-02T14:22:56.157Z,10.53
2023-03-02T14:25:59.499Z,10.54
2023-03-02T14:29:21.297Z,10.50
2023-03-02T14:32:24.781Z,10.58
2023-03-02T14:35:27.911Z,10.49
2023-03-02T14:38:31.334Z,10.38
2023-03-02T14:41:52.495Z,10.27
2023-03-02T14:44:56.341Z,10.34
2023-03-02T14:48:00.608Z,10.14
2023-03-02T14:51:04.248Z,10.17
2023-03-02T14:54:12.682Z,10.09
2023-03-02T14:57:22.252Z,9.98
2023-03-02T15:00:26.157Z,9.93
2023-03-02T15:03:29.654Z,9.85
2023-03-02T15:06:43.608Z,9.72
2023-03-02T15:09:47.271Z,9.64
2023-03-02T15:12:51.128Z,9.73
2023-03-02T15:15:54.453Z,9.69
2023-03-02T15:18:58.927Z,9.58
2023-03-02T15:22:02.417Z,9.55
2023-03-02T15:25:06.237Z,9.47
2023-03-02T15:28:09.826Z,9.42
2023-03-02T15:31:16.036Z,9.29
2023-03-02T15:34:19.396Z,9.28
2023-03-02T15:37:22.647Z,9.15
2023-03-02T15:40:26.588Z,9.14
2023-03-02T15:43:29.552Z,9.07
2023-03-02T15:46:32.961Z,9.03
2023-03-02T15:49:36.239Z,8.98
2023-03-02T15:52:39.255Z,9.00
2023-03-02T15:55:42.432Z,8.98
2023-03-02T15:58:47.847Z,8.88
2023-03-02T16:01:51.918Z,8.80
2023-03-02T16:04:55.172Z,8.81
2023-03-02T16:07:58.205Z,8.67
2023-03-02T16:11:04.391Z,8.72
2023-03-02T16:14:07.546Z,8.74
2023-03-02T16:17:10.347Z,8.73
2023-03-02T16:20:13.439Z,8.67
2023-03-02T16:23:16.366Z,8.61
2023-03-02T16:26:21.016Z,8.51
2023-03-02T16:29:24.434Z,8.54
2023-03-02T16:32:28.388Z,8.39
2023-03-02T16:35:33.246Z,8.24
2023-03-02T16:38:37.367Z,8.25
2023-03-02T16:41:42.971Z,8.19
2023-03-02T16:44:46.440Z,8.15
2023-03-02T16:47:50.017Z,8.16
2023-03-02T16:50:58.207Z,8.10
2023-03-02T16:54:02.406Z,8.06
2023-03-02T16:57:05.651Z,8.05
2023-03-02T17:00:11.792Z,8.07
2023-03-02T17:03:15.090Z,8.02
2023-03-02T17:06:22.327Z,8.06
2023-03-02T17:09:25.450Z,8.09
2023-03-02T17:12:29.037Z,7.99
2023-03-02T17:15:32.845Z,7.92
2023-03-02T17:18:35.902Z,7.99
2023-03-02T17:21:39.189Z,7.93
2023-03-02T17:24:42.379Z,8.01
2023-03-02T17:27:45.667Z,7.96
2023-03-02T17:30:49.909Z,7.95
2023-03-02T17:33:53.352Z,7.88
2023-03-02T17:36:56.550Z,7.80
2023-03-02T17:39:59.918Z,7.71
2023-03-02T17:43:03.186Z,7.78
2023-03-02T17:46:20.520Z,7.72
2023-03-02T17:49:24.129Z,7.73
2023-03-02T17:52:27.631Z,7.65
2023-03-02T17:55:30.993Z,7.66
2023-03-02T17:58:44.349Z,7.69
2023-03-02T18:01:48.344Z,7.56
2023-03-02T18:04:51.494Z,7.62
2023-03-02T18:07:54.887Z,7.43
2023-03-02T18:11:02.725Z,7.35
2023-03-02T18:14:06.097Z,7.26
2023-03-02T18:17:10.337Z,7.24
2023-03-02T18:20:16.295Z,7.22
2023-03-02T18:23:19.913Z,7.12
2023-03-02T18:26:23.430Z,6.97
2023-03-02T18:29:26.869Z,6.92
2023-03-02T18:32:29.864Z,6.86
2023-03-02T18:35:33.831Z,6.89
2023-03-02T18:38:37.998Z,6.76
2023-03-02T18:41:41.628Z,6.59
2023-03-02T18:44:44.771Z,6.57
2023-03-02T18:47:48.002Z,6.52
2023-03-02T18:50:51.580Z,6.52
2023-03-02T18:53:56.366Z,6.50
2023-03-02T18:57:01.758Z,6.40
2023-03-02T19:00:08.386Z,6.12
2023-03-02T19:03:15.140Z,6.15
2023-03-02T19:06:18.494Z,6.06
2023-03-02T19:09:23.687Z,6.06
2023-03-02T19:12:27.404Z,5.96
2023-03-02T19:15:33.230Z,6.03
2023-03-02T19:18:38.003Z,6.04
2023-03-02T19:21:41.384Z,6.08
2023-03-02T19:24:45.931Z,5.99
2023-03-02T19:27:49.400Z,5.99
2023-03-02T19:30:52.844Z,5.86
2023-03-02T19:33:56.798Z,5.73
2023-03-02T19:37:00.521Z,5.68
2023-03-02T19:40:04.158Z,5.66
2023-03-02T19:43:07.480Z,5.72
2023-03-02T19:46:14.093Z,5.59
2023-03-02T19:49:17.224Z,5.47
2023-03-02T19:52:20.070Z,5.36
2023-03-02T19:55:24.414Z,5.33
2023-03-02T19:58:28.586Z,5.27
2023-03-02T20:01:32.166Z,5.35
2023-03-02T20:04:35.679Z,5.38
2023-03-02T20:07:41.563Z,5.33
2023-03-02T20:10:46.694Z,5.45
2023-03-02T20:13:50.617Z,5.46
2023-03-02T20:16:53.784Z,5.58
2023-03-02T20:19:57.392Z,5.54
2023-03-02T20:23:00.896Z,5.39
2023-03-02T20:26:05.049Z,5.46
2023-03-02T20:29:09.138Z,5.36
2023-03-02T20:32:13.630Z,5.35
2023-03-02T20:35:16.754Z,5.45
2023-03-02T20:38:29.158Z,5.44
2023-03-02T20:41:33.246Z,5.43
2023-03-02T20:44:36.584Z,5.46
2023-03-02T20:47:40.723Z,5.50
2023-03-02T20:50:44.320Z,5.50
2023-03-02T20:53:47.866Z,5.53
2023-03-02T20:56:51.850Z,5.49
2023-03-02T20:59:54.935Z,5.55
2023-03-02T21:02:58.314Z,5.54
2023-03-02T21:06:01.451Z,5.51
2023-03-02T21:09:08.085Z,5.69
2023-03-02T21:12:11.959Z,5.78
2023-03-02T21:15:16.913Z,5.65
2023-03-02T21:18:20.076Z,5.62
2023-03-02T21:21:39.448Z,5.65
2023-03-02T21:24:44.444Z,5.85
2023-03-02T21:27:48.335Z,5.85
2023-03-02T21:30:52.172Z,5.84
2023-03-02T21:33:55.328Z,5.87
2023-03-02T21:36:59.844Z,5.84
2023-03-02T21:40:03.162Z,5.86
2023-03-02T21:43:07.694Z,5.92
2023-03-02T21:46:17.004Z,5.97
2023-03-02T21:49:22.456Z,5.98
2023-03-02T21:52:27.379Z,5.96
2023-03-02T21:55:31.019Z,5.96
2023-03-02T21:58:34.350Z,6.05
2023-03-02T22:01:37.656Z,6.04
2023-03-02T22:04:42.112Z,5.93
2023-03-02T22:07:45.445Z,6.06
2023-03-02T22:10:51.608Z,6.01
2023-03-02T22:13:57.809Z,6.06
2023-03-02T22:17:01.185Z,6.03
2023-03-02T22:20:16.731Z,5.94
2023-03-02T22:23:23.198Z,5.99
2023-03-02T22:26:26.975Z,6.02
2023-03-02T22:29:33.754Z,5.85
2023-03-02T22:32:38.726Z,5.95
2023-03-02T22:35:42.759Z,5.91
2023-03-02T22:38:48.734Z,6.08
2023-03-02T22:41:58.725Z,6.07
2023-03-02T22:45:17.089Z,6.07
2023-03-02T22:48:22.827Z,5.93
2023-03-02T22:51:33.922Z,5.90
2023-03-02T22:54:37.879Z,5.91
2023-03-02T22:57:43.220Z,5.83
2023-03-02T23:00:49.214Z,5.94
2023-03-02T23:04:03.283Z,5.80
2023-03-02T23:07:24.462Z,5.79
2023-03-02T23:10:28.001Z,5.77
2023-03-02T23:13:39.901Z,5.92
2023-03-02T23:16:42.859Z,5.91
2023-03-02T23:19:47.233Z,5.86
2023-03-02T23:22:50.656Z,5.83
2023-03-02T23:25:53.988Z,5.89
2023-03-02T23:28:58.188Z,5.92
2023-03-02T23:32:02.380Z,5.78
2023-03-02T23:35:05.901Z,5.82
2023-03-02T23:38:09.484Z,5.85
2023-03-02T23:41:12.917Z,5.80
2023-03-02T23:44:16.733Z,5.90
2023-03-02T23:47:19.980Z,5.95
2023-03-02T23:50:23.314Z,5.86
2023-03-02T23:53:26.796Z,5.85
2023-03-02T23:56:29.606Z,5.82
2023-03-02T23:59:33.048Z,5.77
